createdAt,value
2017-11-22T00:01:51.599Z,13.60
2017-11-22T00:04:19.103Z,14.13
2017-11-22T00:06:46.612Z,14.97
2017-11-22T00:09:14.089Z,14.57
2017-11-22T00:11:41.571Z,13.57
2017-11-22T00:14:09.834Z,13.10
2017-11-22T00:16:37.348Z,13.93
2017-11-22T00:19:05.852Z,13.70
2017-11-22T00:21:33.427Z,13.50
2017-11-22T00:24:00.917Z,13.57
2017-11-22T00:26:28.463Z,12.67
2017-11-22T00:28:56.762Z,13.33
2017-11-22T00:31:24.252Z,14.20
2017-11-22T00:33:51.724Z,13.07
2017-11-22T00:36:19.200Z,14.13
2017-11-22T00:38:46.763Z,13.23
2017-11-22T00:41:15.029Z,13.73
2017-11-22T00:43:43.280Z,15.13
2017-11-22T00:46:10.756Z,14.23
2017-11-22T00:48:38.312Z,14.60
2017-11-22T00:51:05.788Z,14.53
2017-11-22T00:53:34.028Z,14.97
2017-11-22T00:56:01.917Z,15.47
2017-11-22T00:58:29.390Z,13.80
2017-11-22T01:00:57.642Z,14.87
2017-11-22T01:03:25.145Z,15.10
2017-11-22T01:05:52.620Z,14.67
2017-11-22T01:08:20.142Z,14.20
2017-11-22T01:10:48.496Z,13.90
2017-11-22T01:13:16.055Z,13.70
2017-11-22T01:15:43.529Z,13.67
2017-11-22T01:18:11.783Z,12.40
2017-11-22T01:20:39.250Z,13.07
2017-11-22T01:23:06.811Z,14.47
2017-11-22T01:25:35.677Z,15.00
2017-11-22T01:28:03.160Z,13.47
2017-11-22T01:30:31.412Z,15.30
2017-11-22T01:32:58.905Z,14.70
2017-11-22T01:35:27.144Z,14.10
2017-11-22T01:37:54.627Z,14.10
2017-11-22T01:40:22.887Z,15.60
2017-11-22T01:42:50.452Z,15.07
2017-11-22T01:45:18.729Z,15.53
2017-11-22T01:47:46.995Z,17.40
2017-11-22T01:50:14.555Z,15.97
2017-11-22T01:52:42.038Z,16.80
2017-11-22T01:55:09.523Z,17.73
2017-11-22T01:57:36.998Z,16.67
2017-11-22T02:00:04.464Z,17.83
2017-11-22T02:02:31.936Z,20.00
2017-11-22T02:04:59.413Z,20.47
2017-11-22T02:07:27.660Z,20.20
2017-11-22T02:09:55.145Z,18.20
2017-11-22T02:12:23.400Z,18.03
2017-11-22T02:14:51.672Z,19.97
2017-11-22T02:17:19.786Z,21.27
2017-11-22T02:19:47.282Z,17.67
2017-11-22T02:22:14.748Z,17.33
2017-11-22T02:24:42.326Z,19.03
2017-11-22T02:27:09.888Z,17.90
2017-11-22T02:29:37.386Z,20.10
2017-11-22T02:32:05.760Z,19.93
2017-11-22T02:34:33.248Z,20.70
2017-11-22T02:37:00.737Z,19.50
2017-11-22T02:39:28.209Z,19.50
2017-11-22T02:41:56.445Z,18.37
2017-11-22T02:44:23.918Z,16.93
2017-11-22T02:46:51.389Z,19.30
2017-11-22T02:49:18.860Z,18.73
2017-11-22T02:51:47.113Z,17.83
2017-11-22T02:54:14.692Z,18.10
2017-11-22T02:56:42.946Z,20.20
2017-11-22T02:59:10.428Z,18.80
2017-11-22T03:01:37.963Z,18.87
2017-11-22T03:04:06.216Z,20.37
2017-11-22T03:06:33.685Z,20.10
2017-11-22T03:09:01.156Z,16.73
2017-11-22T03:11:28.983Z,17.50
2017-11-22T03:13:56.443Z,16.97
2017-11-22T03:16:23.932Z,17.40
2017-11-22T03:18:52.119Z,15.60
2017-11-22T03:21:20.380Z,15.23
2017-11-22T03:23:47.952Z,16.17
2017-11-22T03:26:16.229Z,15.20
2017-11-22T03:28:44.459Z,15.30
2017-11-22T03:31:11.949Z,15.87
2017-11-22T03:33:40.321Z,14.90
2017-11-22T03:36:07.887Z,15.90
2017-11-22T03:38:35.369Z,14.97
2017-11-22T03:41:03.618Z,14.93
2017-11-22T03:43:31.173Z,15.90
2017-11-22T03:45:59.451Z,12.93
2017-11-22T03:48:27.692Z,14.30
2017-11-22T03:51:00.816Z,15.67
2017-11-22T03:53:34.061Z,14.77
2017-11-22T03:56:01.548Z,15.47
2017-11-22T03:58:29.129Z,14.40
2017-11-22T04:00:57.373Z,15.63
2017-11-22T04:03:24.860Z,14.53
2017-11-22T04:05:56.088Z,15.40
2017-11-22T04:08:27.433Z,14.80
2017-11-22T04:10:56.412Z,13.90
2017-11-22T04:13:23.884Z,14.10
2017-11-22T04:15:51.359Z,14.83
2017-11-22T04:18:20.175Z,14.90
2017-11-22T04:20:54.429Z,16.27
2017-11-22T04:23:21.901Z,14.63
2017-11-22T04:25:49.372Z,14.87
2017-11-22T04:28:16.857Z,15.93
2017-11-22T04:30:44.340Z,15.00
2017-11-22T04:33:11.809Z,15.20
2017-11-22T04:35:39.291Z,15.87
2017-11-22T04:38:06.856Z,14.80
2017-11-22T04:40:34.425Z,14.80
2017-11-22T04:43:02.672Z,15.37
2017-11-22T04:45:31.071Z,15.60
2017-11-22T04:47:59.130Z,15.87
2017-11-22T04:50:26.615Z,17.00
2017-11-22T04:52:54.865Z,16.77
2017-11-22T04:55:22.333Z,17.70
2017-11-22T04:57:49.813Z,17.43
2017-11-22T05:00:18.063Z,17.57
2017-11-22T05:02:45.542Z,16.93
2017-11-22T05:05:13.792Z,17.20
2017-11-22T05:07:41.264Z,16.07
2017-11-22T05:10:09.517Z,16.40
2017-11-22T05:12:36.996Z,15.87
2017-11-22T05:15:05.251Z,15.90
2017-11-22T05:17:32.765Z,14.80
2017-11-22T05:20:00.324Z,14.90
2017-11-22T05:22:27.791Z,15.33
2017-11-22T05:24:55.257Z,15.10
2017-11-22T05:27:22.742Z,14.83
2017-11-22T05:29:50.297Z,14.13
2017-11-22T05:32:17.764Z,14.87
2017-11-22T05:34:45.241Z,15.50
2017-11-22T05:37:13.506Z,15.43
2017-11-22T05:39:41.749Z,15.50
2017-11-22T05:42:09.228Z,15.80
2017-11-22T05:44:37.469Z,15.10
2017-11-22T05:47:04.964Z,15.33
2017-11-22T05:49:33.517Z,15.20
2017-11-22T05:52:00.989Z,14.90
2017-11-22T05:54:28.573Z,14.67
2017-11-22T05:56:56.835Z,13.60
2017-11-22T05:59:24.313Z,14.20
2017-11-22T06:01:52.641Z,14.93
2017-11-22T06:04:20.127Z,14.97
2017-11-22T06:06:47.682Z,15.93
2017-11-22T06:09:15.173Z,14.60
2017-11-22T06:11:42.647Z,14.77
2017-11-22T06:14:10.158Z,14.67
2017-11-22T06:16:37.641Z,14.77
2017-11-22T06:19:05.112Z,15.93
2017-11-22T06:21:32.624Z,15.30
2017-11-22T06:24:00.104Z,14.77
2017-11-22T06:26:28.369Z,16.00
2017-11-22T06:28:57.010Z,16.00
2017-11-22T06:31:25.009Z,15.73
2017-11-22T06:33:52.500Z,16.00
2017-11-22T06:36:19.981Z,16.30
2017-11-22T06:38:47.468Z,16.50
2017-11-22T06:41:14.937Z,15.93
2017-11-22T06:43:42.497Z,17.60
2017-11-22T06:46:10.013Z,17.70
2017-11-22T06:48:37.621Z,16.87
2017-11-22T06:51:05.088Z,17.80
2017-11-22T06:53:33.339Z,18.60
2017-11-22T06:56:00.808Z,17.47
2017-11-22T06:58:28.281Z,18.10
2017-11-22T07:00:56.543Z,19.57
2017-11-22T07:03:29.640Z,19.17
2017-11-22T07:05:57.153Z,18.60
2017-11-22T07:08:24.633Z,17.03
2017-11-22T07:10:52.118Z,17.40
2017-11-22T07:13:20.373Z,17.90
2017-11-22T07:15:54.319Z,18.80
2017-11-22T07:18:21.809Z,18.67
2017-11-22T07:20:49.281Z,20.03
2017-11-22T07:23:18.270Z,18.33
2017-11-22T07:25:45.760Z,17.77
2017-11-22T07:28:14.031Z,18.00
2017-11-22T07:30:41.501Z,17.50
2017-11-22T07:33:09.753Z,18.60
2017-11-22T07:35:43.005Z,18.67
2017-11-22T07:38:10.484Z,19.00
2017-11-22T07:40:38.074Z,18.13
2017-11-22T07:43:06.338Z,19.00
2017-11-22T07:45:33.889Z,19.83
2017-11-22T07:48:07.009Z,18.40
2017-11-22T07:50:35.257Z,17.70
2017-11-22T07:53:02.736Z,20.10
2017-11-22T07:55:30.985Z,19.27
2017-11-22T07:57:58.466Z,20.47
2017-11-22T08:00:26.722Z,19.23
2017-11-22T08:02:59.985Z,18.10
2017-11-22T08:05:27.475Z,17.37
2017-11-22T08:07:54.940Z,19.87
2017-11-22T08:10:23.217Z,19.20
2017-11-22T08:12:51.456Z,20.87
2017-11-22T08:15:18.933Z,21.40
2017-11-22T08:17:46.416Z,19.27
2017-11-22T08:20:14.656Z,18.60
2017-11-22T08:22:42.130Z,18.77
2017-11-22T08:25:13.580Z,19.60
2017-11-22T08:27:41.845Z,18.07
2017-11-22T08:30:09.420Z,18.30
2017-11-22T08:32:37.672Z,19.03
2017-11-22T08:35:05.150Z,19.30
2017-11-22T08:37:33.402Z,18.50
2017-11-22T08:40:01.607Z,18.03
2017-11-22T08:42:30.796Z,18.47
2017-11-22T08:44:58.352Z,18.63
2017-11-22T08:47:26.623Z,19.93
2017-11-22T08:49:54.088Z,21.83
2017-11-22T08:52:21.563Z,19.17
2017-11-22T08:54:55.517Z,19.57
2017-11-22T08:57:28.825Z,19.70
2017-11-22T09:00:02.025Z,18.87
2017-11-22T09:02:29.497Z,20.47
2017-11-22T09:04:56.974Z,20.53
2017-11-22T09:07:24.510Z,19.30
2017-11-22T09:09:51.988Z,18.47
2017-11-22T09:12:25.108Z,19.57
2017-11-22T09:14:54.509Z,18.40
2017-11-22T09:17:22.013Z,20.03
2017-11-22T09:19:49.492Z,18.77
2017-11-22T09:22:17.719Z,19.20
2017-11-22T09:24:51.001Z,20.83
2017-11-22T09:27:24.314Z,19.70
2017-11-22T09:29:56.812Z,20.37
2017-11-22T09:32:30.813Z,19.87
2017-11-22T09:35:04.053Z,20.40
2017-11-22T09:37:31.532Z,20.07
2017-11-22T09:39:59.381Z,20.97
2017-11-22T09:42:29.483Z,20.67
2017-11-22T09:44:56.977Z,20.77
2017-11-22T09:47:24.464Z,22.23
2017-11-22T09:49:51.939Z,20.37
2017-11-22T09:52:20.184Z,20.83
2017-11-22T09:54:49.288Z,22.63
2017-11-22T09:57:16.951Z,22.63
2017-11-22T09:59:44.517Z,21.20
2017-11-22T10:02:12.782Z,21.67
2017-11-22T10:04:40.271Z,20.10
2017-11-22T10:07:07.748Z,21.47
2017-11-22T10:09:35.240Z,20.80
2017-11-22T10:12:02.732Z,21.40
2017-11-22T10:14:30.970Z,22.07
2017-11-22T10:17:04.167Z,23.90
2017-11-22T10:19:37.345Z,21.80
2017-11-22T10:22:04.844Z,21.23
2017-11-22T10:24:33.114Z,20.70
2017-11-22T10:27:07.077Z,21.53
2017-11-22T10:29:45.473Z,22.60
2017-11-22T10:32:18.597Z,22.47
2017-11-22T10:34:46.091Z,22.00
2017-11-22T10:37:14.353Z,21.97
2017-11-22T10:39:41.841Z,23.53
2017-11-22T10:42:09.308Z,22.40
2017-11-22T10:44:36.825Z,21.40
2017-11-22T10:47:04.302Z,22.07
2017-11-22T10:49:31.832Z,22.43
2017-11-22T10:51:59.322Z,21.30
2017-11-22T10:54:26.849Z,22.87
2017-11-22T10:56:54.416Z,22.23
2017-11-22T10:59:22.677Z,21.83
2017-11-22T11:01:50.259Z,21.47
2017-11-22T11:04:17.753Z,20.90
2017-11-22T11:06:45.269Z,21.93
2017-11-22T11:09:13.527Z,20.33
2017-11-22T11:11:41.709Z,21.80
2017-11-22T11:14:09.270Z,21.20
2017-11-22T11:16:37.525Z,22.07
2017-11-22T11:19:05.009Z,20.43
2017-11-22T11:21:33.240Z,20.53
2017-11-22T11:24:01.475Z,19.03
2017-11-22T11:26:28.981Z,18.67
2017-11-22T11:28:56.477Z,19.97
2017-11-22T11:31:24.748Z,19.80
2017-11-22T11:33:53.024Z,19.80
2017-11-22T11:36:32.104Z,20.80
2017-11-22T11:38:59.680Z,20.87
2017-11-22T11:41:27.181Z,19.70
2017-11-22T11:43:55.417Z,19.77
2017-11-22T11:46:22.917Z,20.30
2017-11-22T11:48:51.178Z,21.27
2017-11-22T11:51:19.413Z,20.67
2017-11-22T11:53:46.906Z,18.87
2017-11-22T11:56:15.197Z,20.60
2017-11-22T11:58:43.449Z,19.47
2017-11-22T12:01:10.932Z,19.53
2017-11-22T12:03:38.440Z,20.40
2017-11-22T12:06:06.646Z,19.67
2017-11-22T12:08:34.147Z,19.10
2017-11-22T12:11:01.628Z,19.40
2017-11-22T12:13:29.115Z,18.50
2017-11-22T12:15:57.381Z,18.90
2017-11-22T12:18:26.372Z,18.40
2017-11-22T12:21:00.377Z,19.30
2017-11-22T12:23:27.840Z,17.63
2017-11-22T12:25:55.405Z,19.90
2017-11-22T12:28:22.961Z,20.57
2017-11-22T12:30:50.440Z,19.03
2017-11-22T12:33:18.684Z,19.00
2017-11-22T12:35:46.172Z,18.10
2017-11-22T12:38:14.456Z,17.30
2017-11-22T12:40:41.936Z,16.90
2017-11-22T12:43:09.433Z,17.40
2017-11-22T12:45:36.920Z,18.37
2017-11-22T12:48:05.193Z,18.23
2017-11-22T12:50:33.471Z,17.00
2017-11-22T12:53:01.015Z,18.10
2017-11-22T12:55:29.287Z,19.20
2017-11-22T12:58:00.736Z,16.80
2017-11-22T13:00:28.338Z,17.50
2017-11-22T13:02:55.837Z,17.43
2017-11-22T13:05:23.364Z,17.57
2017-11-22T13:07:50.858Z,17.60
2017-11-22T13:10:35.147Z,17.07
2017-11-22T13:13:02.629Z,15.80
2017-11-22T13:15:30.113Z,17.40
2017-11-22T13:17:57.622Z,16.67
2017-11-22T13:20:25.110Z,18.00
2017-11-22T13:22:52.618Z,15.53
2017-11-22T13:25:21.109Z,15.57
2017-11-22T13:27:49.354Z,15.20
2017-11-22T13:30:17.673Z,15.90
2017-11-22T13:32:45.201Z,16.50
2017-11-22T13:35:12.692Z,18.10
2017-11-22T13:37:40.196Z,15.47
2017-11-22T13:40:07.714Z,15.80
2017-11-22T13:42:35.221Z,16.40
2017-11-22T13:45:09.252Z,15.03
2017-11-22T13:47:37.519Z,15.83
2017-11-22T13:50:05.815Z,15.90
2017-11-22T13:52:34.068Z,16.47
2017-11-22T13:55:02.334Z,17.27
2017-11-22T13:57:29.899Z,16.53
2017-11-22T13:59:57.405Z,15.23
2017-11-22T14:02:24.905Z,15.57
2017-11-22T14:04:52.397Z,15.20
2017-11-22T14:07:21.328Z,16.80
2017-11-22T14:09:48.816Z,16.63
2017-11-22T14:12:16.293Z,16.27
2017-11-22T14:14:45.130Z,15.73
2017-11-22T14:17:12.724Z,16.50
2017-11-22T14:19:40.285Z,15.87
2017-11-22T14:22:07.760Z,15.50
2017-11-22T14:24:35.992Z,15.80
2017-11-22T14:27:03.473Z,16.10
2017-11-22T14:29:30.978Z,16.13
2017-11-22T14:31:58.449Z,14.17
2017-11-22T14:34:25.977Z,17.20
2017-11-22T14:36:53.505Z,16.53
2017-11-22T14:39:21.594Z,14.67
2017-11-22T14:41:49.836Z,15.83
2017-11-22T14:44:17.317Z,16.87
2017-11-22T14:46:45.572Z,16.00
2017-11-22T14:49:13.090Z,15.73
2017-11-22T14:51:40.613Z,16.90
2017-11-22T14:54:08.875Z,15.63
2017-11-22T14:56:36.440Z,15.70
2017-11-22T14:59:04.673Z,15.77
2017-11-22T15:01:32.156Z,15.03
2017-11-22T15:03:59.621Z,16.87
2017-11-22T15:06:27.171Z,15.30
2017-11-22T15:08:54.637Z,15.93
2017-11-22T15:11:22.109Z,14.10
2017-11-22T15:13:50.368Z,14.97
2017-11-22T15:16:17.848Z,14.70
2017-11-22T15:18:46.089Z,13.60
2017-11-22T15:21:13.585Z,14.73
2017-11-22T15:23:41.838Z,13.80
2017-11-22T15:26:09.313Z,12.30
2017-11-22T15:28:37.659Z,15.47
2017-11-22T15:31:05.145Z,13.00
2017-11-22T15:33:33.390Z,13.63
2017-11-22T15:36:00.866Z,14.43
2017-11-22T15:38:29.135Z,14.30
2017-11-22T15:40:56.617Z,13.00
2017-11-22T15:43:24.093Z,15.40
2017-11-22T15:45:51.617Z,13.70
2017-11-22T15:48:19.853Z,14.17
2017-11-22T15:50:47.338Z,13.70
2017-11-22T15:53:14.893Z,13.50
2017-11-22T15:55:42.360Z,15.30
2017-11-22T15:58:10.628Z,14.63
2017-11-22T16:00:38.133Z,15.30
2017-11-22T16:03:05.620Z,15.77
2017-11-22T16:05:33.105Z,15.00
2017-11-22T16:08:01.424Z,15.00
2017-11-22T16:10:28.905Z,12.90
2017-11-22T16:12:56.385Z,13.43
2017-11-22T16:15:23.889Z,13.03
2017-11-22T16:17:51.383Z,13.40
2017-11-22T16:20:18.868Z,13.07
2017-11-22T16:22:46.437Z,13.87
2017-11-22T16:25:14.694Z,12.90
2017-11-22T16:27:42.252Z,13.07
2017-11-22T16:30:09.742Z,13.30
2017-11-22T16:32:37.988Z,14.30
2017-11-22T16:35:05.464Z,12.93
2017-11-22T16:37:33.708Z,13.30
2017-11-22T16:40:01.282Z,14.73
2017-11-22T16:42:29.523Z,15.03
2017-11-22T16:44:57.013Z,15.10
2017-11-22T16:47:24.498Z,13.43
2017-11-22T16:49:51.993Z,13.47
2017-11-22T16:52:20.105Z,12.53
2017-11-22T16:54:48.384Z,13.83
2017-11-22T16:57:16.629Z,12.10
2017-11-22T16:59:44.119Z,11.80
2017-11-22T17:02:11.680Z,12.50
2017-11-22T17:04:40.531Z,14.83
2017-11-22T17:07:08.018Z,15.30
2017-11-22T17:09:36.294Z,11.50
2017-11-22T17:12:04.569Z,12.00
2017-11-22T17:14:32.135Z,11.77
2017-11-22T17:16:59.713Z,12.33
2017-11-22T17:19:27.206Z,11.90
2017-11-22T17:21:54.692Z,11.07
2017-11-22T17:24:22.199Z,10.40
2017-11-22T17:26:49.704Z,9.90
2017-11-22T17:29:17.198Z,10.23
2017-11-22T17:31:44.705Z,10.90
2017-11-22T17:34:12.186Z,8.40
2017-11-22T17:36:41.356Z,10.00
2017-11-22T17:39:08.845Z,9.73
2017-11-22T17:41:37.087Z,9.23
2017-11-22T17:44:04.621Z,9.90
2017-11-22T17:46:32.132Z,10.60
2017-11-22T17:48:59.687Z,9.80
2017-11-22T17:51:27.165Z,8.87
2017-11-22T17:53:54.687Z,9.10
2017-11-22T17:56:22.717Z,9.13
2017-11-22T17:58:50.220Z,9.53
2017-11-22T18:01:17.789Z,10.00
2017-11-22T18:03:45.346Z,8.90
2017-11-22T18:06:12.819Z,9.50
2017-11-22T18:08:41.688Z,10.07
2017-11-22T18:11:09.149Z,9.17
2017-11-22T18:13:36.621Z,9.47
2017-11-22T18:16:04.877Z,9.70
2017-11-22T18:18:32.344Z,10.33
2017-11-22T18:21:00.620Z,10.13
2017-11-22T18:23:28.909Z,9.77
2017-11-22T18:25:57.160Z,10.10
2017-11-22T18:28:24.641Z,8.53
2017-11-22T18:30:52.900Z,9.50
2017-11-22T18:33:20.421Z,10.17
2017-11-22T18:35:48.415Z,9.80
2017-11-22T18:38:15.913Z,9.30
2017-11-22T18:40:43.391Z,9.23
2017-11-22T18:43:10.907Z,8.90
2017-11-22T18:45:39.156Z,10.10
2017-11-22T18:48:06.635Z,8.50
2017-11-22T18:50:34.104Z,9.73
2017-11-22T18:53:02.372Z,10.93
2017-11-22T18:55:30.638Z,10.10
2017-11-22T18:57:58.106Z,10.87
2017-11-22T19:00:26.364Z,10.13
2017-11-22T19:02:53.828Z,8.77
2017-11-22T19:05:21.296Z,9.40
2017-11-22T19:07:48.902Z,9.43
2017-11-22T19:10:16.410Z,8.50
2017-11-22T19:12:44.654Z,9.70
2017-11-22T19:15:12.249Z,9.00
2017-11-22T19:17:40.526Z,8.53
2017-11-22T19:20:08.808Z,8.80
2017-11-22T19:22:37.164Z,8.30
2017-11-22T19:25:04.657Z,8.17
2017-11-22T19:27:32.146Z,8.00
2017-11-22T19:29:59.854Z,8.60
2017-11-22T19:32:27.357Z,9.93
2017-11-22T19:34:55.720Z,8.03
2017-11-22T19:37:23.217Z,8.63
2017-11-22T19:39:50.705Z,8.37
2017-11-22T19:42:19.617Z,7.83
2017-11-22T19:44:47.855Z,7.97
2017-11-22T19:47:15.347Z,7.43
2017-11-22T19:49:42.820Z,9.17
2017-11-22T19:52:10.356Z,7.97
2017-11-22T19:54:37.935Z,8.50
2017-11-22T19:57:05.415Z,7.77
2017-11-22T19:59:32.929Z,9.10
2017-11-22T20:02:00.457Z,8.30
2017-11-22T20:04:27.940Z,7.93
2017-11-22T20:07:08.150Z,6.87
2017-11-22T20:09:35.627Z,8.30
2017-11-22T20:12:03.939Z,8.00
2017-11-22T20:14:31.439Z,8.87
2017-11-22T20:16:58.963Z,8.30
2017-11-22T20:19:26.450Z,7.53
2017-11-22T20:21:53.997Z,7.97
2017-11-22T20:24:22.242Z,6.67
2017-11-22T20:26:49.724Z,7.60
2017-11-22T20:29:17.204Z,6.70
2017-11-22T20:31:44.684Z,6.70
2017-11-22T20:34:12.197Z,7.47
2017-11-22T20:36:39.749Z,8.07
2017-11-22T20:39:07.397Z,7.50
2017-11-22T20:41:34.986Z,7.17
2017-11-22T20:44:02.483Z,8.70
2017-11-22T20:46:30.519Z,6.67
2017-11-22T20:48:58.382Z,7.27
2017-11-22T20:51:27.423Z,6.43
2017-11-22T20:53:56.771Z,6.83
2017-11-22T20:56:24.674Z,7.60
2017-11-22T20:58:52.223Z,6.80
2017-11-22T21:01:19.688Z,6.27
2017-11-22T21:03:47.152Z,6.00
2017-11-22T21:06:14.625Z,6.63
2017-11-22T21:08:42.924Z,6.70
2017-11-22T21:11:10.413Z,6.43
2017-11-22T21:13:37.995Z,6.40
2017-11-22T21:16:05.553Z,5.27
2017-11-22T21:18:33.112Z,6.00
2017-11-22T21:21:01.415Z,5.97
2017-11-22T21:23:29.117Z,5.50
2017-11-22T21:25:56.985Z,6.60
2017-11-22T21:28:24.826Z,5.77
2017-11-22T21:30:54.078Z,6.03
2017-11-22T21:33:21.829Z,6.37
2017-11-22T21:35:49.367Z,5.90
2017-11-22T21:38:16.837Z,5.50
2017-11-22T21:40:45.145Z,6.10
2017-11-22T21:43:12.693Z,4.90
2017-11-22T21:45:41.668Z,5.00
2017-11-22T21:48:09.144Z,4.10
2017-11-22T21:50:36.633Z,5.50
2017-11-22T21:53:04.125Z,5.33
2017-11-22T21:55:31.604Z,4.30
2017-11-22T21:57:59.184Z,4.50
2017-11-22T22:00:27.411Z,4.33
2017-11-22T22:02:54.914Z,4.77
2017-11-22T22:05:22.390Z,4.80
2017-11-22T22:07:50.621Z,4.97
2017-11-22T22:10:18.124Z,4.30
2017-11-22T22:12:45.620Z,5.00
2017-11-22T22:15:13.081Z,3.87
2017-11-22T22:17:41.148Z,4.23
2017-11-22T22:20:08.741Z,4.63
2017-11-22T22:22:37.033Z,3.97
2017-11-22T22:25:05.314Z,4.20
2017-11-22T22:27:33.548Z,4.23
2017-11-22T22:30:01.746Z,4.33
2017-11-22T22:32:29.220Z,3.30
2017-11-22T22:34:57.465Z,4.40
2017-11-22T22:37:24.942Z,4.17
2017-11-22T22:39:53.187Z,4.43
2017-11-22T22:42:21.284Z,3.83
2017-11-22T22:44:49.590Z,3.60
2017-11-22T22:47:17.044Z,3.70
2017-11-22T22:49:44.516Z,4.40
2017-11-22T22:52:12.024Z,3.67
2017-11-22T22:54:39.492Z,3.50
2017-11-22T22:57:07.728Z,3.67
2017-11-22T22:59:35.213Z,3.30
2017-11-22T23:02:03.466Z,3.53
2017-11-22T23:04:30.953Z,3.70
2017-11-22T23:06:59.216Z,3.00
2017-11-22T23:09:27.459Z,3.43
2017-11-22T23:11:54.965Z,3.73
2017-11-22T23:14:23.205Z,4.00
2017-11-22T23:16:50.684Z,3.07
2017-11-22T23:19:18.914Z,2.60
2017-11-22T23:21:46.394Z,3.47
2017-11-22T23:24:13.861Z,4.10
2017-11-22T23:26:42.858Z,2.93
2017-11-22T23:29:10.325Z,2.90
2017-11-22T23:31:37.791Z,2.60
2017-11-22T23:34:06.034Z,3.03
2017-11-22T23:36:33.509Z,3.33
2017-11-22T23:39:01.203Z,3.17
2017-11-22T23:41:30.480Z,2.70
2017-11-22T23:43:58.717Z,2.70
2017-11-22T23:46:26.174Z,2.40
2017-11-22T23:48:53.659Z,2.87
2017-11-22T23:51:21.118Z,3.13
2017-11-22T23:53:48.586Z,2.60
2017-11-22T23:56:16.850Z,2.40
2017-11-22T23:58:44.316Z,3.00
